Time;durP1;ratioP1;P1;durP2;ratioP2;P2;SDS_P1;SDS_P2;PMS_P1;PMS_P2;Temp;Humidity;BMP_temperature;BMP_pressure;BME280_temperature;BME280_humidity;BME280_pressure;Samples;Min_cycle;Max_cycle;Signal;HPM_P1;HPM_P2
2023/08/30 00:02:20;;;;;;;0.30;0.30;;;;;;;10.44;76.61;94560.00;6180123;28;20133;-66
2023/08/30 00:05:27;;;;;;;0.47;0.40;;;;;;;10.48;76.42;94566.63;6177458;28;20150;-66
2023/08/30 00:08:32;;;;;;;0.28;0.22;;;;;;;10.63;75.63;94572.94;6160213;28;20054;-66
2023/08/30 00:11:38;;;;;;;0.50;0.30;;;;;;;10.60;75.61;94572.44;6159602;28;20050;-66
2023/08/30 00:14:42;;;;;;;0.47;0.47;;;;;;;10.66;75.17;94566.56;6159639;28;20058;-65
2023/08/30 00:17:43;;;;;;;0.85;0.50;;;;;;;10.66;75.35;94570.00;6159749;28;20055;-67
2023/08/30 00:20:47;;;;;;;0.40;0.40;;;;;;;10.71;75.17;94569.53;6155711;28;20051;-66
2023/08/30 00:23:48;;;;;;;0.47;0.30;;;;;;;10.71;75.13;94573.00;6161785;28;20056;-66
2023/08/30 00:26:50;;;;;;;0.55;0.38;;;;;;;10.71;75.13;94566.91;6167793;28;20184;-66
2023/08/30 00:29:55;;;;;;;0.40;0.40;;;;;;;10.89;73.85;94574.72;6179300;28;20047;-66
2023/08/30 00:33:00;;;;;;;0.30;0.30;;;;;;;10.94;72.96;94561.91;6168295;28;20053;-64
2023/08/30 00:36:04;;;;;;;0.68;0.32;;;;;;;11.04;72.24;94552.09;6164149;28;20426;-65
2023/08/30 00:39:05;;;;;;;0.50;0.50;;;;;;;10.94;72.34;94561.91;6167073;28;20058;-65
2023/08/30 00:42:10;;;;;;;0.30;0.30;;;;;;;10.97;72.05;94556.34;6156909;28;20142;-65
2023/08/30 00:45:11;;;;;;;0.47;0.40;;;;;;;11.03;71.30;94558.31;6154806;28;20050;-65
2023/08/30 00:48:18;;;;;;;0.45;0.40;;;;;;;11.05;71.04;94552.91;6165000;28;20495;-64
2023/08/30 00:51:24;;;;;;;1.20;0.52;;;;;;;11.09;70.59;94551.59;6168368;28;20039;-64
2023/08/30 00:54:27;;;;;;;0.40;0.40;;;;;;;11.09;70.27;94560.31;6166463;28;20042;-65
2023/08/30 00:57:30;;;;;;;0.60;0.60;;;;;;;11.05;70.28;94569.53;6168238;28;20045;-65
2023/08/30 01:00:33;;;;;;;1.95;0.50;;;;;;;10.96;70.25;94545.00;6161774;28;20689;-65
2023/08/30 01:03:38;;;;;;;0.50;0.50;;;;;;;11.03;70.14;94547.81;6163270;28;20137;-65
2023/08/30 01:06:45;;;;;;;0.60;0.60;;;;;;;11.01;69.90;94560.28;6184839;28;20054;-65
2023/08/30 01:09:46;;;;;;;0.60;0.60;;;;;;;11.12;69.23;94557.38;6168227;28;20869;-65
2023/08/30 01:12:58;;;;;;;0.40;0.40;;;;;;;11.10;69.28;94546.19;6182934;28;20053;-65
2023/08/30 01:16:00;;;;;;;1.38;0.60;;;;;;;11.13;69.05;94550.31;6187370;28;20034;-64
2023/08/30 01:19:21;;;;;;;0.45;0.40;;;;;;;11.05;69.48;94548.47;6189152;28;20046;-65
2023/08/30 01:22:47;;;;;;;0.65;0.52;;;;;;;11.07;69.27;94541.25;6186050;28;20089;-65
2023/08/30 01:26:00;;;;;;;0.57;0.40;;;;;;;11.12;68.67;94538.94;6187605;28;20055;-65
2023/08/30 01:29:05;;;;;;;0.82;0.75;;;;;;;11.18;68.38;94548.84;6183830;28;20049;-65
2023/08/30 01:32:09;;;;;;;4.00;2.05;;;;;;;11.15;68.45;94538.66;6181561;28;20553;-65
2023/08/30 01:35:19;;;;;;;0.73;0.55;;;;;;;11.08;68.56;94542.06;6183433;28;20491;-64
2023/08/30 01:38:23;;;;;;;0.43;0.38;;;;;;;11.17;68.39;94541.09;6189917;28;20156;-64
2023/08/30 01:41:26;;;;;;;0.55;0.55;;;;;;;11.22;68.04;94550.16;6186268;28;20054;-64
2023/08/30 01:44:28;;;;;;;0.40;0.40;;;;;;;11.20;68.21;94546.88;6188400;28;20034;-64
2023/08/30 01:47:37;;;;;;;0.63;0.38;;;;;;;11.24;68.33;94552.66;6186198;28;20158;-64
2023/08/30 01:50:41;;;;;;;0.50;0.40;;;;;;;11.34;67.94;94561.22;6187070;28;20165;-65
2023/08/30 01:53:46;;;;;;;1.38;0.40;;;;;;;11.46;67.57;94564.38;6189708;28;20049;-64
2023/08/30 01:56:48;;;;;;;2.03;0.40;;;;;;;11.54;67.36;94563.56;6184262;28;20148;-64
2023/08/30 01:59:49;;;;;;;0.52;0.40;;;;;;;11.67;66.89;94562.13;6183949;28;20496;-65
2023/08/30 02:02:50;;;;;;;0.38;0.32;;;;;;;11.86;66.10;94570.72;6188291;28;20042;-65
2023/08/30 02:06:26;;;;;;;0.55;0.40;;;;;;;12.03;65.36;94563.63;6185845;28;20062;-65
2023/08/30 02:09:36;;;;;;;4.07;1.60;;;;;;;12.06;65.50;94569.44;6139363;28;20050;-65
2023/08/30 02:12:47;;;;;;;1.65;0.80;;;;;;;12.11;65.16;94571.53;6189989;28;20042;-65
2023/08/30 02:15:54;;;;;;;1.00;0.50;;;;;;;12.07;65.21;94571.06;6180093;28;20034;-65
2023/08/30 02:19:01;;;;;;;0.68;0.30;;;;;;;12.07;64.90;94581.59;6186565;28;20042;-65
2023/08/30 02:22:05;;;;;;;0.40;0.32;;;;;;;12.05;64.98;94570.41;6187287;28;20042;-65
2023/08/30 02:25:10;;;;;;;0.20;0.20;;;;;;;12.17;64.87;94570.88;6181138;28;20046;-65
2023/08/30 02:28:11;;;;;;;2.15;1.67;;;;;;;12.35;64.18;94573.34;6187739;28;20046;-65
2023/08/30 02:31:16;;;;;;;1.02;0.50;;;;;;;12.42;63.80;94578.78;6188420;28;20042;-65
2023/08/30 02:34:20;;;;;;;0.40;0.30;;;;;;;12.59;63.23;94581.22;6190502;28;20030;-65
2023/08/30 02:37:24;;;;;;;0.30;0.22;;;;;;;12.57;63.72;94579.75;6188618;28;20391;-65
2023/08/30 02:40:27;;;;;;;0.22;0.22;;;;;;;12.71;62.56;94578.22;6180677;28;20129;-65
2023/08/30 02:43:32;;;;;;;0.20;0.20;;;;;;;12.81;62.27;94584.97;6185533;28;20054;-65
2023/08/30 02:46:34;;;;;;;0.15;0.15;;;;;;;12.67;62.73;94583.03;6181940;28;20042;-65
2023/08/30 02:49:37;;;;;;;0.20;0.20;;;;;;;12.61;63.20;94590.78;6191046;28;20112;-65
2023/08/30 02:52:43;;;;;;;0.10;0.10;;;;;;;12.75;62.36;94583.00;6187585;28;20038;-65
2023/08/30 02:55:49;;;;;;;0.10;0.10;;;;;;;12.86;61.56;94587.09;6186497;28;20061;-65
2023/08/30 02:58:53;;;;;;;0.20;0.20;;;;;;;12.87;61.26;94588.75;6174495;28;20042;-65
2023/08/30 03:01:59;;;;;;;0.15;0.15;;;;;;;12.83;61.51;94592.72;6183264;28;20045;-65
2023/08/30 03:05:00;;;;;;;0.17;0.10;;;;;;;12.84;61.94;94588.25;6186538;28;20050;-65
2023/08/30 03:08:09;;;;;;;1.15;0.20;;;;;;;12.98;61.58;94591.03;6185536;28;20042;-65
2023/08/30 03:11:16;;;;;;;0.77;0.25;;;;;;;13.23;61.06;94583.00;6187426;28;20421;-65
2023/08/30 03:14:20;;;;;;;0.10;0.10;;;;;;;13.41;60.35;94596.81;6187820;28;20038;-65
2023/08/30 03:17:24;;;;;;;0.32;0.20;;;;;;;13.48;60.26;94596.97;6183120;28;20049;-65
2023/08/30 03:20:30;;;;;;;1.27;0.20;;;;;;;13.64;59.47;94590.75;6186421;28;20351;-65
2023/08/30 03:23:35;;;;;;;0.30;0.30;;;;;;;13.81;59.32;94600.22;6183211;28;20042;-65
2023/08/30 03:26:36;;;;;;;0.10;0.10;;;;;;;13.93;58.73;94609.41;6186929;28;20046;-64
2023/08/30 03:29:43;;;;;;;1.33;0.13;;;;;;;13.97;58.80;94586.09;6180269;28;20043;-65
2023/08/30 03:32:44;;;;;;;1.00;0.20;;;;;;;14.11;58.10;94595.09;6166656;28;20441;-65
2023/08/30 03:35:48;;;;;;;1.13;0.08;;;;;;;14.22;57.60;94583.28;6187564;28;20042;-65
2023/08/30 03:38:54;;;;;;;;;;;;;;;14.05;58.09;94603.72;6188795;28;20035;-65
2023/08/30 03:42:00;;;;;;;0.35;0.20;;;;;;;14.00;57.80;94590.19;6172689;28;20036;-65
2023/08/30 03:45:05;;;;;;;1.48;0.17;;;;;;;14.00;58.23;94600.78;6182116;28;20045;-65
2023/08/30 03:48:06;;;;;;;0.82;0.20;;;;;;;14.25;57.56;94594.31;6181946;28;20419;-65
2023/08/30 03:51:09;;;;;;;1.33;0.20;;;;;;;14.46;57.29;94593.63;6185093;28;20501;-65
2023/08/30 03:54:16;;;;;;;1.85;0.15;;;;;;;14.77;56.53;94577.63;6189665;28;20030;-65
2023/08/30 03:57:21;;;;;;;0.20;0.07;;;;;;;14.78;56.06;94584.59;6188138;28;20030;-65
2023/08/30 04:00:22;;;;;;;0.55;0.20;;;;;;;14.93;54.77;94587.25;6180003;28;20077;-65
2023/08/30 04:03:24;;;;;;;0.30;0.10;;;;;;;14.77;54.21;94582.94;6189310;28;20509;-65
2023/08/30 04:06:27;;;;;;;0.10;0.10;;;;;;;14.54;55.69;94592.75;6191690;28;20051;-65
2023/08/30 04:09:32;;;;;;;0.25;0.20;;;;;;;14.62;55.47;94605.09;6194999;28;20095;-64
2023/08/30 04:12:34;;;;;;;1.65;0.17;;;;;;;14.86;54.35;94601.38;6190689;28;20043;-64
2023/08/30 04:15:40;;;;;;;0.20;0.20;;;;;;;14.87;54.51;94600.41;6187014;28;20674;-65
2023/08/30 04:18:45;;;;;;;0.20;0.20;;;;;;;14.87;54.54;94597.75;6190951;28;20042;-66
2023/08/30 04:21:46;;;;;;;0.60;0.15;;;;;;;14.85;54.82;94597.09;6191087;28;20046;-66
2023/08/30 04:24:48;;;;;;;2.08;0.20;;;;;;;14.88;54.62;94600.19;6190640;28;20425;-65
2023/08/30 04:27:50;;;;;;;0.30;0.15;;;;;;;14.82;54.46;94590.34;6187722;28;20068;-66
2023/08/30 04:30:56;;;;;;;1.55;0.20;;;;;;;14.86;54.85;94596.09;6189391;28;20437;-67
2023/08/30 04:33:59;;;;;;;0.10;0.10;;;;;;;15.01;54.72;94599.59;6193523;28;20046;-66
2023/08/30 04:37:00;;;;;;;1.52;0.38;;;;;;;15.24;53.96;94589.72;6187357;28;20533;-65
2023/08/30 04:40:09;;;;;;;0.30;0.17;;;;;;;15.36;53.25;94597.19;6172089;28;20051;-66
2023/08/30 04:43:14;;;;;;;0.45;0.30;;;;;;;15.24;53.41;94610.09;6189560;28;20058;-66
2023/08/30 04:46:17;;;;;;;1.73;0.40;;;;;;;14.95;54.11;94600.31;6191166;28;20053;-65
2023/08/30 04:49:25;;;;;;;0.35;0.20;;;;;;;14.97;54.49;94603.59;6189747;28;20046;-66
2023/08/30 04:52:28;;;;;;;0.60;0.17;;;;;;;15.17;53.65;94599.41;6193318;28;20047;-66
2023/08/30 04:55:35;;;;;;;0.57;0.32;;;;;;;15.45;52.91;94596.06;6188626;28;20046;-66
2023/08/30 04:58:39;;;;;;;1.30;0.30;;;;;;;15.64;52.03;94584.06;6186213;28;20062;-66
2023/08/30 05:01:44;;;;;;;0.43;0.10;;;;;;;15.81;51.65;94595.31;6184357;28;20053;-66
2023/08/30 05:04:52;;;;;;;0.52;0.30;;;;;;;16.02;51.22;94598.00;6184189;28;20054;-66
2023/08/30 05:07:53;;;;;;;0.77;0.47;;;;;;;16.19;50.88;94608.34;6187228;28;20054;-65
2023/08/30 05:10:57;;;;;;;1.05;0.40;;;;;;;16.21;50.62;94601.00;6181762;28;20046;-66
2023/08/30 05:14:00;;;;;;;1.73;1.25;;;;;;;16.27;50.70;94613.53;6185587;28;20049;-66
2023/08/30 05:17:02;;;;;;;1.85;0.73;;;;;;;16.02;50.95;94613.06;6181705;28;20050;-62
2023/08/30 05:20:04;;;;;;;2.67;0.52;;;;;;;15.83;51.58;94619.81;6187134;28;20524;-62
2023/08/30 05:23:07;;;;;;;0.32;0.30;;;;;;;15.84;51.38;94626.75;6184820;28;20046;-62
2023/08/30 05:26:12;;;;;;;0.28;0.28;;;;;;;15.86;51.10;94622.91;6186239;28;20058;-62
2023/08/30 05:29:15;;;;;;;2.33;0.30;;;;;;;15.74;51.68;94628.88;6186490;28;20054;-62
2023/08/30 05:32:18;;;;;;;0.63;0.30;;;;;;;15.67;52.18;94637.53;6183308;28;20446;-62
2023/08/30 05:35:20;;;;;;;1.77;0.70;;;;;;;15.79;51.57;94635.25;6188956;28;20634;-62
2023/08/30 05:38:21;;;;;;;1.35;0.95;;;;;;;15.55;52.10;94644.31;6188109;28;20136;-62
2023/08/30 05:41:25;;;;;;;0.82;0.50;;;;;;;15.30;52.85;94640.31;6187726;28;20065;-67
2023/08/30 05:44:26;;;;;;;0.47;0.25;;;;;;;15.19;53.00;94638.94;6186428;28;20064;-67
2023/08/30 05:47:30;;;;;;;0.20;0.20;;;;;;;15.16;52.83;94645.44;6186807;28;20046;-67
2023/08/30 05:50:37;;;;;;;1.08;0.35;;;;;;;14.97;53.53;94640.66;6190001;28;20082;-69
2023/08/30 05:53:41;;;;;;;1.55;0.20;;;;;;;15.07;52.96;94635.94;6188740;28;20094;-67
2023/08/30 05:56:50;;;;;;;1.35;0.50;;;;;;;14.92;53.64;94632.44;6185355;28;20506;-68
2023/08/30 05:59:54;;;;;;;0.47;0.28;;;;;;;14.97;53.30;94630.06;6184844;28;20070;-68
2023/08/30 06:02:59;;;;;;;;;;;;;;;15.20;53.17;94652.03;6179242;28;20058;-69
2023/08/30 06:06:05;;;;;;;1.52;0.65;;;;;;;15.37;52.32;94649.16;6180706;28;19922;-66
2023/08/30 06:09:06;;;;;;;0.63;0.60;;;;;;;15.24;52.74;94655.94;6184582;28;20054;-69
2023/08/30 06:12:08;;;;;;;1.70;0.63;;;;;;;15.27;52.81;94649.44;6182403;28;20347;-69
2023/08/30 06:15:14;;;;;;;3.10;0.75;;;;;;;15.36;52.70;94666.09;6183198;28;20422;-69
2023/08/30 06:18:15;;;;;;;0.98;0.17;;;;;;;15.57;51.82;94668.81;6183258;28;20050;-64
2023/08/30 06:21:22;;;;;;;0.80;0.30;;;;;;;15.54;51.91;94653.28;6185543;28;20653;-71
2023/08/30 06:24:29;;;;;;;0.30;0.30;;;;;;;15.81;51.79;94669.56;6187284;28;20421;-69
2023/08/30 06:27:33;;;;;;;3.03;0.60;;;;;;;15.87;51.17;94669.63;6183813;28;21242;-69
2023/08/30 06:30:37;;;;;;;0.93;0.40;;;;;;;15.83;51.30;94662.25;6190580;28;20558;-67
2023/08/30 06:33:39;;;;;;;1.98;0.60;;;;;;;15.65;51.85;94665.22;6185429;28;20457;-70
2023/08/30 06:36:40;;;;;;;0.85;0.25;;;;;;;15.45;51.88;94670.28;6169645;28;20046;-67
2023/08/30 06:39:43;;;;;;;1.08;0.50;;;;;;;15.34;52.79;94658.31;6186785;28;20079;-68
2023/08/30 06:42:45;;;;;;;0.30;0.10;;;;;;;15.17;53.29;94640.94;6188055;28;20589;-75
2023/08/30 06:45:49;;;;;;;0.60;0.20;;;;;;;15.25;53.45;94654.09;6184548;28;20391;-75
2023/08/30 06:48:56;;;;;;;0.30;0.20;;;;;;;15.06;54.03;94660.78;6190103;28;20034;-74
2023/08/30 06:52:03;;;;;;;0.80;0.25;;;;;;;14.89;54.85;94643.38;6170549;28;20046;-74
2023/08/30 06:55:04;;;;;;;0.60;0.40;;;;;;;14.40;56.59;94670.25;6184375;28;20045;-73
2023/08/30 06:58:11;;;;;;;0.20;0.10;;;;;;;14.23;57.35;94673.00;6181719;28;20429;-74
2023/08/30 07:01:17;;;;;;;1.27;0.30;;;;;;;14.19;57.77;94662.97;6186262;28;20050;-74
2023/08/30 07:04:21;;;;;;;1.55;0.25;;;;;;;14.24;57.78;94664.09;6183903;28;20057;-76
2023/08/30 07:07:24;;;;;;;1.27;0.30;;;;;;;14.45;57.21;94662.59;6190275;28;20521;-77
2023/08/30 07:10:25;;;;;;;0.47;0.33;;;;;;;14.67;57.07;94664.44;6183105;28;20062;-72
2023/08/30 07:13:28;;;;;;;0.40;0.30;;;;;;;14.29;58.28;94652.97;6163908;28;20050;-69
2023/08/30 07:16:32;;;;;;;1.25;0.30;;;;;;;14.22;58.90;94679.31;6187366;28;20082;-67
2023/08/30 07:19:33;;;;;;;;;;;;;;;14.58;58.44;94678.75;6186074;28;20050;-68
2023/08/30 07:22:37;;;;;;;0.65;0.20;;;;;;;15.31;57.28;94681.69;6192685;28;20397;-70
2023/08/30 07:25:41;;;;;;;0.60;0.20;;;;;;;15.37;57.08;94673.00;6188235;28;20639;-70
2023/08/30 07:28:48;;;;;;;3.15;0.32;;;;;;;15.56;55.21;94672.47;6189533;28;20039;-68
2023/08/30 07:31:54;;;;;;;1.38;0.40;;;;;;;15.74;54.10;94673.94;6186793;28;20608;-70
2023/08/30 07:34:59;;;;;;;0.25;0.20;;;;;;;15.48;54.67;94691.09;6187932;28;20053;-68
2023/08/30 07:38:03;;;;;;;0.40;0.20;;;;;;;15.10;56.52;94683.25;6189187;28;20453;-68
2023/08/30 07:41:07;;;;;;;0.32;0.30;;;;;;;15.12;56.65;94681.25;6183233;28;20055;-71
2023/08/30 07:44:14;;;;;;;0.25;0.25;;;;;;;15.02;57.38;94691.25;6186387;28;20054;-70
2023/08/30 07:47:18;;;;;;;0.20;0.20;;;;;;;14.63;58.90;94686.97;6190569;28;20430;-74
2023/08/30 07:50:20;;;;;;;0.77;0.50;;;;;;;14.04;61.60;94703.38;6179706;28;20188;-74
2023/08/30 07:53:24;;;;;;;0.20;0.20;;;;;;;13.76;62.39;94710.13;6181100;28;20038;-76
2023/08/30 07:56:32;;;;;;;0.20;0.20;;;;;;;13.40;63.97;94711.41;6187290;28;20505;-76
2023/08/30 07:59:38;;;;;;;0.40;0.30;;;;;;;13.35;65.12;94711.09;6187504;28;20034;-72
2023/08/30 08:02:43;;;;;;;1.73;0.60;;;;;;;13.43;65.99;94711.06;6181154;28;20125;-73
2023/08/30 08:05:46;;;;;;;4.03;0.60;;;;;;;13.43;66.40;94732.19;6184558;28;20059;-69
2023/08/30 08:08:50;;;;;;;2.17;0.80;;;;;;;13.18;68.44;94743.78;6185367;28;20050;-69
2023/08/30 08:11:56;;;;;;;1.40;0.40;;;;;;;12.78;70.69;94759.47;6187577;28;20433;-69
2023/08/30 08:15:04;;;;;;;1.38;0.63;;;;;;;12.39;72.78;94759.28;6186668;28;20038;-74
2023/08/30 08:18:13;;;;;;;1.55;0.90;;;;;;;12.20;74.44;94757.78;6184722;28;20086;-76
2023/08/30 08:21:14;;;;;;;1.60;0.70;;;;;;;13.12;75.19;94776.97;6181769;28;20049;-70
2023/08/30 08:24:21;;;;;;;0.85;0.45;;;;;;;14.14;72.48;94771.91;6176616;28;20525;-70
2023/08/30 08:27:27;;;;;;;0.68;0.40;;;;;;;17.02;67.24;94775.00;6180545;28;20160;-70
2023/08/30 08:30:31;;;;;;;0.32;0.25;;;;;;;19.23;55.88;94783.13;6185848;28;20046;-70
2023/08/30 08:33:35;;;;;;;0.85;0.30;;;;;;;20.22;52.21;94776.88;6185223;28;20038;-71
2023/08/30 08:36:42;;;;;;;1.55;0.30;;;;;;;20.43;49.96;94762.41;6188689;28;20061;-70
2023/08/30 08:39:46;;;;;;;0.50;0.30;;;;;;;20.36;49.68;94777.66;6184341;28;20125;-70
2023/08/30 08:42:55;;;;;;;0.40;0.35;;;;;;;19.68;47.93;94760.16;6171422;28;20046;-70
2023/08/30 08:46:02;;;;;;;0.60;0.50;;;;;;;19.71;45.95;94775.75;6186252;28;20054;-70
2023/08/30 08:49:15;;;;;;;0.40;0.30;;;;;;;19.93;45.41;94772.84;6192112;28;20042;-69
2023/08/30 08:52:16;;;;;;;0.82;0.60;;;;;;;20.16;44.89;94773.19;6185241;28;20049;-70
2023/08/30 08:55:18;;;;;;;0.88;0.57;;;;;;;19.99;44.06;94771.19;6190171;28;20041;-70
2023/08/30 08:58:20;;;;;;;1.10;0.70;;;;;;;19.64;44.65;94780.22;6190137;28;22421;-69
2023/08/30 09:01:22;;;;;;;1.25;1.00;;;;;;;20.32;43.24;94776.41;6191582;28;20045;-70
2023/08/30 09:04:24;;;;;;;1.92;1.00;;;;;;;20.48;40.62;94783.94;6188578;28;20054;-69
2023/08/30 09:07:28;;;;;;;2.23;0.77;;;;;;;19.41;41.22;94785.16;6192550;28;20038;-69
2023/08/30 09:10:32;;;;;;;1.45;0.70;;;;;;;18.64;42.47;94779.28;6187212;28;20073;-70
2023/08/30 09:13:36;;;;;;;1.77;1.00;;;;;;;18.01;43.43;94778.63;6189377;28;20034;-70
2023/08/30 09:16:43;;;;;;;1.27;1.13;;;;;;;17.51;45.31;94782.16;6185314;28;20038;-70
2023/08/30 09:19:46;;;;;;;1.20;1.10;;;;;;;16.99;45.30;94770.06;6191912;28;20042;-70
2023/08/30 09:22:50;;;;;;;1.52;0.95;;;;;;;16.59;46.27;94787.41;6186560;28;20042;-70
2023/08/30 09:25:56;;;;;;;1.60;1.30;;;;;;;16.15;47.79;94797.09;6191209;28;20524;-70
2023/08/30 09:29:04;;;;;;;1.65;1.20;;;;;;;15.94;47.78;94786.41;6192269;28;20035;-70
2023/08/30 09:32:10;;;;;;;1.40;1.23;;;;;;;15.77;47.96;94800.84;6185262;28;20101;-70
2023/08/30 09:35:12;;;;;;;1.60;1.25;;;;;;;15.80;47.89;94795.19;6191199;28;20668;-69
2023/08/30 09:38:19;;;;;;;1.90;1.10;;;;;;;15.59;48.71;94804.63;6192024;28;20042;-70
2023/08/30 09:41:24;;;;;;;2.25;1.65;;;;;;;15.30;51.24;94815.19;6185845;28;20034;-70
2023/08/30 09:44:32;;;;;;;1.98;1.30;;;;;;;14.69;54.18;94821.28;6185689;28;20457;-70
2023/08/30 09:47:33;;;;;;;3.10;1.10;;;;;;;14.06;58.17;94835.41;6191008;28;20045;-71
2023/08/30 09:50:41;;;;;;;1.88;1.33;;;;;;;13.54;61.97;94833.25;6187410;28;20042;-71
2023/08/30 09:53:53;;;;;;;4.57;1.10;;;;;;;13.34;63.69;94853.91;6188166;28;20068;-71
2023/08/30 09:56:59;;;;;;;3.25;1.73;;;;;;;13.03;64.75;94873.00;6188195;28;20042;-69
2023/08/30 10:00:03;;;;;;;3.08;1.40;;;;;;;12.47;67.02;94856.88;6189629;28;20035;-69
2023/08/30 10:03:07;;;;;;;1.48;1.23;;;;;;;12.31;69.22;94877.91;6187171;28;20059;-68
2023/08/30 10:06:15;;;;;;;1.58;1.48;;;;;;;11.74;71.30;94872.34;6186903;28;20129;-68
2023/08/30 10:09:19;;;;;;;1.55;1.45;;;;;;;11.79;72.96;94868.25;6184519;28;20038;-68
2023/08/30 10:12:27;;;;;;;1.85;1.63;;;;;;;11.89;73.51;94878.72;6188091;28;20042;-69
2023/08/30 10:15:33;;;;;;;2.13;1.95;;;;;;;11.79;73.95;94872.69;6185711;28;20038;-68
2023/08/30 10:18:40;;;;;;;1.77;1.67;;;;;;;11.61;74.61;94878.84;6185313;28;20050;-69
2023/08/30 10:21:53;;;;;;;2.13;1.58;;;;;;;11.69;75.00;94884.19;6187897;28;20043;-69
2023/08/30 10:25:05;;;;;;;1.92;1.73;;;;;;;11.79;75.49;94893.78;6183372;28;20038;-69
2023/08/30 10:28:11;;;;;;;1.60;1.50;;;;;;;11.89;74.21;94889.28;6189516;28;20076;-68
2023/08/30 10:31:17;;;;;;;1.65;1.48;;;;;;;11.99;71.16;94895.25;6190390;28;20573;-69
2023/08/30 10:34:21;;;;;;;;;;;;;;;12.18;70.61;94896.84;6186664;28;20049;-69
2023/08/30 10:37:27;;;;;;;1.73;1.23;;;;;;;12.33;69.50;94903.16;6188356;28;19926;-69
2023/08/30 10:40:28;;;;;;;1.13;1.02;;;;;;;12.32;68.99;94911.25;6186348;28;20056;-69
2023/08/30 10:43:35;;;;;;;1.25;1.00;;;;;;;12.49;68.66;94912.13;6186242;28;20035;-69
2023/08/30 10:46:36;;;;;;;1.65;1.10;;;;;;;12.64;68.40;94926.34;6166448;28;21491;-70
2023/08/30 10:49:46;;;;;;;0.70;0.70;;;;;;;12.78;66.93;94927.56;6183729;28;20054;-68
2023/08/30 10:52:56;;;;;;;0.40;0.40;;;;;;;12.67;66.82;94941.03;6186891;28;20046;-69
2023/08/30 10:56:10;;;;;;;1.98;1.00;;;;;;;12.74;67.25;94945.53;6185838;28;20077;-68
2023/08/30 10:59:18;;;;;;;0.82;0.75;;;;;;;12.68;67.47;94942.69;6190243;28;20180;-68
2023/08/30 11:02:23;;;;;;;1.00;0.80;;;;;;;12.72;68.20;94934.31;6188205;28;20431;-69
2023/08/30 11:05:26;;;;;;;0.75;0.73;;;;;;;13.12;66.63;94943.31;6185704;28;20547;-69
2023/08/30 11:08:33;;;;;;;0.95;0.80;;;;;;;14.03;64.15;94950.28;6189131;28;20087;-69
2023/08/30 11:11:37;;;;;;;1.10;0.70;;;;;;;14.73;61.21;94962.88;6179183;28;20050;-70
2023/08/30 11:14:40;;;;;;;0.95;0.90;;;;;;;14.80;60.15;94969.13;6180284;28;20046;-69
2023/08/30 11:17:45;;;;;;;2.17;1.08;;;;;;;14.71;60.73;94974.63;6187542;28;20057;-70
2023/08/30 11:20:57;;;;;;;1.25;1.15;;;;;;;14.64;61.32;94979.78;6187773;28;20054;-69
2023/08/30 11:24:04;;;;;;;1.25;1.10;;;;;;;14.49;61.61;94976.13;6183811;28;20502;-71
2023/08/30 11:27:05;;;;;;;0.70;0.70;;;;;;;14.51;61.77;94974.16;6185104;28;20039;-69
2023/08/30 11:30:10;;;;;;;1.08;0.85;;;;;;;14.31;63.26;94989.59;6183002;28;20034;-69
2023/08/30 11:33:16;;;;;;;1.58;1.10;;;;;;;14.29;62.72;94997.69;6188135;28;20042;-70
2023/08/30 11:36:22;;;;;;;1.10;0.90;;;;;;;14.03;63.34;95002.34;6184868;28;20038;-69
2023/08/30 11:39:24;;;;;;;1.90;0.90;;;;;;;14.01;64.01;95005.19;6189955;28;20041;-69
2023/08/30 11:42:25;;;;;;;2.50;1.08;;;;;;;14.08;64.08;95006.16;6176602;28;20060;-69
2023/08/30 11:45:34;;;;;;;1.10;1.00;;;;;;;14.28;62.86;95019.84;6187658;28;20042;-69
2023/08/30 11:48:43;;;;;;;0.85;0.73;;;;;;;14.19;62.00;95018.22;6185395;28;20039;-69
2023/08/30 11:51:47;;;;;;;1.27;1.17;;;;;;;13.88;63.15;95016.25;6185860;28;20046;-69
2023/08/30 11:54:49;;;;;;;4.40;1.25;;;;;;;14.07;62.11;95022.19;6182803;28;20053;-69
2023/08/30 11:57:52;;;;;;;1.42;1.30;;;;;;;14.48;61.15;95038.00;6187886;28;20126;-69
2023/08/30 12:00:58;;;;;;;0.80;0.40;;;;;;;14.96;56.80;95036.25;6182441;28;20050;-69
2023/08/30 12:04:10;;;;;;;1.35;0.75;;;;;;;14.70;57.12;95032.03;6180316;28;20501;-71
2023/08/30 12:07:26;;;;;;;1.75;1.40;;;;;;;15.18;56.83;95037.34;6187193;28;20518;-70
2023/08/30 12:10:30;;;;;;;1.45;0.70;;;;;;;15.37;55.51;95034.25;6183262;28;20521;-71
2023/08/30 12:13:35;;;;;;;1.92;0.80;;;;;;;15.17;55.91;95044.47;6188124;28;20043;-69
2023/08/30 12:16:43;;;;;;;1.52;0.93;;;;;;;14.90;57.06;95047.53;6183792;28;20352;-71
2023/08/30 12:19:58;;;;;;;0.82;0.80;;;;;;;14.85;56.90;95048.03;6184455;28;20038;-70
2023/08/30 12:23:03;;;;;;;1.48;0.70;;;;;;;15.10;55.29;95062.03;6184013;28;20054;-72
2023/08/30 12:26:09;;;;;;;1.08;0.70;;;;;;;14.57;56.41;95063.50;6189395;28;20462;-70
2023/08/30 12:29:11;;;;;;;1.13;1.00;;;;;;;14.31;57.16;95043.31;6190720;28;20132;-71
2023/08/30 12:32:18;;;;;;;2.88;1.27;;;;;;;14.80;57.25;95090.94;6190012;28;20050;-73
2023/08/30 12:35:21;;;;;;;2.47;1.50;;;;;;;15.10;56.07;95080.56;6184981;28;20465;-69
2023/08/30 12:38:26;;;;;;;1.17;1.10;;;;;;;15.25;55.24;95097.38;6184968;28;20043;-71
2023/08/30 12:41:34;;;;;;;2.55;1.63;;;;;;;14.99;56.09;95110.88;6185850;28;20043;-71
2023/08/30 12:44:41;;;;;;;1.35;1.20;;;;;;;14.60;57.42;95110.78;6190080;28;20050;-71
2023/08/30 12:47:49;;;;;;;1.67;1.08;;;;;;;14.44;57.09;95116.09;6193720;28;20066;-74
2023/08/30 12:50:53;;;;;;;2.10;1.40;;;;;;;14.14;56.33;95134.25;6189704;28;20107;-68
2023/08/30 12:53:54;;;;;;;3.25;1.30;;;;;;;13.82;55.98;95129.75;6186383;28;20074;-69
2023/08/30 12:56:55;;;;;;;1.00;0.60;;;;;;;13.48;55.54;95126.19;6189687;28;20411;-69
2023/08/30 12:59:59;;;;;;;3.22;0.63;;;;;;;13.24;56.26;95139.25;6187030;28;20039;-69
2023/08/30 13:03:06;;;;;;;1.15;0.90;;;;;;;13.20;56.42;95143.22;6191714;28;20042;-69
2023/08/30 13:06:07;;;;;;;3.03;1.30;;;;;;;13.16;56.08;95157.69;6171353;28;20118;-70
2023/08/30 13:09:11;;;;;;;;;;;;;;;13.19;55.85;95160.03;6195526;28;20049;-69
2023/08/30 13:12:13;;;;;;;4.55;1.30;;;;;;;13.12;55.44;95159.03;6190194;28;19921;-69
2023/08/30 13:15:18;;;;;;;4.40;1.40;;;;;;;12.97;56.13;95169.34;6188741;28;20046;-69
2023/08/30 13:18:24;;;;;;;5.10;1.92;;;;;;;12.92;56.39;95177.72;6185269;28;20050;-70
2023/08/30 13:21:28;;;;;;;5.72;2.30;;;;;;;12.89;56.64;95167.47;6184568;28;20144;-69
2023/08/30 13:24:32;;;;;;;8.40;3.88;;;;;;;12.99;56.99;95186.69;6186297;28;20049;-70
2023/08/30 13:27:36;;;;;;;4.97;2.97;;;;;;;13.13;57.01;95189.72;6186207;28;20050;-69
2023/08/30 13:30:44;;;;;;;2.55;1.40;;;;;;;13.06;57.10;95193.97;6185313;28;20489;-70
2023/08/30 13:33:45;;;;;;;1.13;0.85;;;;;;;13.10;57.20;95195.31;6191585;28;20047;-69
2023/08/30 13:36:49;;;;;;;;;;;;;;;13.20;56.67;95202.13;6190513;28;20046;-69
2023/08/30 13:39:53;;;;;;;1.13;0.70;;;;;;;13.10;56.89;95217.25;6183729;28;19922;-74
2023/08/30 13:42:57;;;;;;;0.60;0.60;;;;;;;12.88;57.62;95215.97;6192071;28;20038;-76
2023/08/30 13:46:04;;;;;;;0.50;0.47;;;;;;;12.76;57.85;95225.09;6188031;28;20513;-73
2023/08/30 13:49:08;;;;;;;0.80;0.75;;;;;;;12.59;58.23;95240.78;6188467;28;20129;-72
2023/08/30 13:52:11;;;;;;;3.90;0.80;;;;;;;12.39;58.72;95223.47;6190523;28;20043;-75
2023/08/30 13:55:15;;;;;;;1.00;0.80;;;;;;;12.39;58.59;95244.56;6189492;28;20042;-72
2023/08/30 13:58:19;;;;;;;1.67;0.90;;;;;;;12.30;58.27;95238.41;6189545;28;20046;-70
2023/08/30 14:01:26;;;;;;;0.98;0.80;;;;;;;12.35;58.20;95253.78;6189693;28;20046;-74
2023/08/30 14:04:32;;;;;;;0.82;0.60;;;;;;;12.18;58.65;95257.22;6187829;28;20073;-70
2023/08/30 14:07:34;;;;;;;0.80;0.68;;;;;;;11.97;59.31;95258.31;6191279;28;20049;-70
2023/08/30 14:10:38;;;;;;;1.15;0.82;;;;;;;11.89;59.86;95264.34;6187578;28;20505;-70
2023/08/30 14:13:42;;;;;;;1.48;1.05;;;;;;;11.79;60.02;95260.06;6188231;28;20051;-70
2023/08/30 14:16:49;;;;;;;2.10;1.25;;;;;;;11.61;60.62;95266.09;6188882;28;20557;-65
2023/08/30 14:19:55;;;;;;;9.27;6.50;;;;;;;11.53;60.87;95266.00;6189696;28;20038;-68
2023/08/30 14:23:01;;;;;;;3.83;2.10;;;;;;;11.15;61.15;95217.75;6186830;28;20050;-72
2023/08/30 14:26:09;;;;;;;1.98;1.30;;;;;;;11.58;60.75;95274.28;6186537;28;20047;-72
2023/08/30 14:29:16;;;;;;;1.95;1.20;;;;;;;11.47;60.62;95277.09;6187367;28;20057;-69
2023/08/30 14:32:17;;;;;;;4.90;1.50;;;;;;;11.36;60.43;95261.47;6186052;28;20517;-69